createdAt,value
2022-10-18T00:02:25.530Z,102707.00
2022-10-18T00:04:55.264Z,102705.94
2022-10-18T00:07:25.078Z,102706.53
2022-10-18T00:09:57.249Z,102713.44
2022-10-18T00:12:26.855Z,102716.69
2022-10-18T00:14:56.607Z,102716.47
2022-10-18T00:17:26.213Z,102713.78
2022-10-18T00:19:56.093Z,102721.47
2022-10-18T00:22:25.904Z,102713.47
2022-10-18T00:24:58.173Z,102709.88
2022-10-18T00:27:28.057Z,102708.84
2022-10-18T00:29:57.856Z,102716.75
2022-10-18T00:32:27.944Z,102726.16
2022-10-18T00:34:57.650Z,102719.75
2022-10-18T00:37:27.309Z,102726.50
2022-10-18T00:39:59.544Z,102722.84
2022-10-18T00:42:33.104Z,102736.66
2022-10-18T00:45:25.277Z,102731.41
2022-10-18T00:47:58.082Z,102733.09
2022-10-18T00:50:29.816Z,102738.22
2022-10-18T00:53:01.345Z,102734.63
2022-10-18T00:55:35.476Z,102731.94
2022-10-18T00:58:06.784Z,102731.88
2022-10-18T01:00:39.256Z,102732.63
2022-10-18T01:03:10.783Z,102741.28
2022-10-18T01:05:45.528Z,102736.78
2022-10-18T01:08:42.993Z,102733.97
2022-10-18T01:11:27.553Z,102736.34
2022-10-18T01:14:05.926Z,102748.50
2022-10-18T01:16:40.505Z,102753.53
2022-10-18T01:19:35.695Z,102755.06
2022-10-18T01:22:12.084Z,102750.44
2022-10-18T01:25:04.051Z,102751.34
2022-10-18T01:27:46.978Z,102750.44
2022-10-18T01:30:42.892Z,102747.81
2022-10-18T01:33:22.777Z,102737.19
2022-10-18T01:35:56.922Z,102744.09
2022-10-18T01:38:28.788Z,102744.81
2022-10-18T01:41:00.953Z,102745.66
2022-10-18T01:43:32.884Z,102741.25
2022-10-18T01:46:08.115Z,102741.09
2022-10-18T01:48:39.678Z,102738.41
2022-10-18T01:51:09.330Z,102746.16
2022-10-18T01:53:39.174Z,102749.53
2022-10-18T01:56:20.869Z,102758.97
2022-10-18T01:58:58.281Z,102755.31
2022-10-18T02:01:36.427Z,102752.53
2022-10-18T02:04:22.106Z,102757.03
2022-10-18T02:06:58.309Z,102756.88
2022-10-18T02:09:38.579Z,102755.00
2022-10-18T02:12:12.340Z,102752.03
2022-10-18T02:14:42.590Z,102750.09
2022-10-18T02:17:16.201Z,102755.13
2022-10-18T02:19:49.281Z,102758.50
2022-10-18T02:22:20.998Z,102760.09
2022-10-18T02:24:55.942Z,102765.25
2022-10-18T02:27:26.071Z,102766.91
2022-10-18T02:29:56.438Z,102759.81
2022-10-18T02:32:36.709Z,102765.03
2022-10-18T02:35:13.468Z,102758.00
2022-10-18T02:37:45.843Z,102755.31
2022-10-18T02:40:16.106Z,102755.25
2022-10-18T02:42:49.680Z,102763.09
2022-10-18T02:45:20.653Z,102764.16
2022-10-18T02:47:52.886Z,102762.06
2022-10-18T02:50:22.595Z,102761.78
2022-10-18T02:52:52.225Z,102766.88
2022-10-18T02:55:21.896Z,102760.59
2022-10-18T02:57:51.720Z,102758.66
2022-10-18T03:00:21.505Z,102754.91
2022-10-18T03:02:54.014Z,102758.22
2022-10-18T03:05:23.785Z,102756.41
2022-10-18T03:07:53.440Z,102764.28
2022-10-18T03:10:23.082Z,102758.13
2022-10-18T03:12:52.718Z,102761.50
2022-10-18T03:15:22.325Z,102766.59
2022-10-18T03:17:54.697Z,102767.50
2022-10-18T03:20:24.298Z,102764.66
2022-10-18T03:22:53.969Z,102770.56
2022-10-18T03:25:23.651Z,102770.53
2022-10-18T03:27:53.368Z,102768.66
2022-10-18T03:30:23.004Z,102761.81
2022-10-18T03:32:55.296Z,102760.88
2022-10-18T03:35:25.343Z,102765.28
2022-10-18T03:37:55.047Z,102771.53
2022-10-18T03:40:24.836Z,102764.66
2022-10-18T03:42:54.477Z,102769.88
2022-10-18T03:45:28.832Z,102778.41
2022-10-18T03:48:03.559Z,102776.50
2022-10-18T03:50:33.283Z,102772.09
2022-10-18T03:53:02.944Z,102768.50
2022-10-18T03:55:32.500Z,102763.19
2022-10-18T03:58:02.322Z,102764.09
2022-10-18T04:00:32.107Z,102763.19
2022-10-18T04:03:04.382Z,102761.47
2022-10-18T04:05:34.729Z,102758.84
2022-10-18T04:08:04.776Z,102765.97
2022-10-18T04:10:34.463Z,102774.72
2022-10-18T04:13:04.086Z,102776.34
2022-10-18T04:15:33.799Z,102763.94
2022-10-18T04:18:06.430Z,102760.28
2022-10-18T04:20:36.060Z,102753.25
2022-10-18T04:23:05.698Z,102751.44
2022-10-18T04:25:38.500Z,102763.56
2022-10-18T04:28:08.349Z,102765.34
2022-10-18T04:30:38.131Z,102770.44
2022-10-18T04:33:10.341Z,102769.38
2022-10-18T04:35:40.006Z,102774.31
2022-10-18T04:38:09.544Z,102771.53
2022-10-18T04:40:40.178Z,102778.56
2022-10-18T04:43:09.781Z,102781.28
2022-10-18T04:45:39.708Z,102782.00
2022-10-18T04:48:12.333Z,102784.72
2022-10-18T04:50:42.019Z,102781.28
2022-10-18T04:53:11.910Z,102783.81
2022-10-18T04:55:41.620Z,102789.03
2022-10-18T04:58:11.339Z,102792.56
2022-10-18T05:00:42.091Z,102785.59
2022-10-18T05:03:16.096Z,102792.47
2022-10-18T05:06:03.446Z,102791.66
2022-10-18T05:08:34.057Z,102804.66
2022-10-18T05:11:04.854Z,102795.75
2022-10-18T05:13:34.549Z,102804.34
2022-10-18T05:16:04.284Z,102807.72
2022-10-18T05:18:36.670Z,102818.94
2022-10-18T05:21:13.505Z,102813.53
2022-10-18T05:23:43.575Z,102817.88
2022-10-18T05:26:13.326Z,102821.16
2022-10-18T05:28:43.053Z,102821.66
2022-10-18T05:31:14.257Z,102812.81
2022-10-18T05:33:46.534Z,102806.44
2022-10-18T05:36:16.177Z,102802.84
2022-10-18T05:38:48.491Z,102813.16
2022-10-18T05:41:18.612Z,102823.63
2022-10-18T05:43:48.835Z,102820.84
2022-10-18T05:46:19.060Z,102821.59
2022-10-18T05:48:53.953Z,102817.81
2022-10-18T05:51:23.838Z,102822.00
2022-10-18T05:53:54.946Z,102828.78
2022-10-18T05:56:24.806Z,102837.34
2022-10-18T05:58:54.885Z,102837.19
2022-10-18T06:01:24.697Z,102830.16
2022-10-18T06:03:57.125Z,102830.97
2022-10-18T06:06:26.716Z,102841.28
2022-10-18T06:08:56.396Z,102854.50
2022-10-18T06:11:26.478Z,102850.09
2022-10-18T06:13:57.872Z,102853.53
2022-10-18T06:16:32.205Z,102844.78
2022-10-18T06:19:04.931Z,102856.97
2022-10-18T06:21:35.026Z,102872.56
2022-10-18T06:24:04.651Z,102876.97
2022-10-18T06:26:34.296Z,102876.97
2022-10-18T06:29:03.903Z,102871.75
2022-10-18T06:31:33.863Z,102882.13
2022-10-18T06:34:06.240Z,102882.03
2022-10-18T06:36:35.928Z,102891.59
2022-10-18T06:39:05.621Z,102891.50
2022-10-18T06:41:35.288Z,102890.78
2022-10-18T06:44:13.644Z,102882.03
2022-10-18T06:46:43.559Z,102881.13
2022-10-18T06:49:19.480Z,102888.16
2022-10-18T06:51:49.316Z,102902.94
2022-10-18T06:54:19.476Z,102909.09
2022-10-18T06:56:49.474Z,102897.00
2022-10-18T06:59:19.290Z,102898.06
2022-10-18T07:01:48.888Z,102902.38
2022-10-18T07:04:21.075Z,102913.75
2022-10-18T07:06:50.718Z,102912.84
2022-10-18T07:09:20.342Z,102915.88
2022-10-18T07:11:49.913Z,102913.34
2022-10-18T07:14:19.497Z,102911.56
2022-10-18T07:16:49.012Z,102917.78
2022-10-18T07:19:21.289Z,102929.38
2022-10-18T07:21:50.942Z,102929.56
2022-10-18T07:24:20.537Z,102930.44
2022-10-18T07:26:50.247Z,102929.81
2022-10-18T07:29:20.073Z,102935.94
2022-10-18T07:31:49.737Z,102945.00
2022-10-18T07:34:21.954Z,102941.00
2022-10-18T07:36:51.565Z,102940.94
2022-10-18T07:39:21.113Z,102944.22
2022-10-18T07:41:50.934Z,102950.25
2022-10-18T07:44:20.502Z,102953.84
2022-10-18T07:46:50.240Z,102956.03
2022-10-18T07:49:22.481Z,102962.25
2022-10-18T07:51:52.319Z,102969.22
2022-10-18T07:54:22.438Z,102971.25
2022-10-18T07:56:52.150Z,102971.19
2022-10-18T07:59:21.786Z,102974.56
2022-10-18T08:01:51.368Z,102970.06
2022-10-18T08:04:23.765Z,102969.03
2022-10-18T08:06:53.427Z,102969.41
2022-10-18T08:09:23.251Z,102970.69
2022-10-18T08:11:52.785Z,102973.78
2022-10-18T08:14:22.487Z,102972.72
2022-10-18T08:16:52.071Z,102976.22
2022-10-18T08:19:25.205Z,102972.34
2022-10-18T08:21:54.834Z,102974.94
2022-10-18T08:24:25.341Z,102977.38
2022-10-18T08:26:55.114Z,102974.19
2022-10-18T08:29:28.104Z,102977.94
2022-10-18T08:32:00.649Z,102974.44
2022-10-18T08:34:33.619Z,102973.84
2022-10-18T08:37:06.354Z,102967.53
2022-10-18T08:39:36.042Z,102965.72
2022-10-18T08:42:34.504Z,102969.88
2022-10-18T08:45:12.986Z,102975.84
2022-10-18T08:47:57.290Z,102972.31
2022-10-18T08:50:36.683Z,102985.28
2022-10-18T08:53:16.135Z,102979.88
2022-10-18T08:55:48.802Z,102966.50
2022-10-18T08:58:22.209Z,102977.44
2022-10-18T09:01:06.022Z,102976.13
2022-10-18T09:03:57.810Z,102971.63
2022-10-18T09:06:38.039Z,102965.28
2022-10-18T09:09:23.235Z,102969.59
2022-10-18T09:12:05.416Z,102970.50
2022-10-18T09:15:01.342Z,102980.63
2022-10-18T09:17:39.442Z,102988.53
2022-10-18T09:20:26.251Z,102981.16
2022-10-18T09:23:01.801Z,102979.97
2022-10-18T09:25:39.005Z,102987.31
2022-10-18T09:28:29.145Z,102986.50
2022-10-18T09:31:07.820Z,102980.31
2022-10-18T09:33:56.271Z,102991.59
2022-10-18T09:36:32.480Z,102998.00
2022-10-18T09:39:08.015Z,103008.75
2022-10-18T09:41:47.396Z,103001.09
2022-10-18T09:44:23.812Z,103001.09
2022-10-18T09:46:59.625Z,103005.19
2022-10-18T09:49:33.747Z,103003.19
2022-10-18T09:52:10.478Z,103013.06
2022-10-18T09:54:47.800Z,103023.75
2022-10-18T09:57:24.911Z,103019.47
2022-10-18T09:59:54.599Z,103026.38
2022-10-18T10:02:26.032Z,103027.69
2022-10-18T10:04:57.174Z,103025.31
2022-10-18T10:07:32.562Z,103033.75
2022-10-18T10:10:15.400Z,103027.50
2022-10-18T10:12:46.022Z,103032.75
2022-10-18T10:15:22.802Z,103034.66
2022-10-18T10:18:04.241Z,103042.31
2022-10-18T10:20:38.493Z,103043.38
2022-10-18T10:23:10.325Z,103034.59
2022-10-18T10:25:45.168Z,103036.44
2022-10-18T10:28:18.838Z,103034.81
2022-10-18T10:30:48.750Z,103031.44
2022-10-18T10:33:35.436Z,103039.81
2022-10-18T10:36:07.246Z,103047.00
2022-10-18T10:38:36.866Z,103046.81
2022-10-18T10:41:22.766Z,103051.56
2022-10-18T10:43:53.685Z,103054.34
2022-10-18T10:46:23.809Z,103049.41
2022-10-18T10:49:15.403Z,103059.84
2022-10-18T10:51:53.670Z,103056.72
2022-10-18T10:54:36.886Z,103055.81
2022-10-18T10:57:22.657Z,103056.78
2022-10-18T10:59:54.765Z,103055.59
2022-10-18T11:02:29.707Z,103054.34
2022-10-18T11:05:18.028Z,103056.31
2022-10-18T11:07:49.683Z,103059.94
2022-10-18T11:10:25.849Z,103066.25
2022-10-18T11:13:06.107Z,103053.19
2022-10-18T11:15:40.992Z,103054.38
2022-10-18T11:18:20.015Z,103051.00
2022-10-18T11:20:55.848Z,103061.09
2022-10-18T11:23:32.293Z,103066.81
2022-10-18T11:26:16.521Z,103058.72
2022-10-18T11:29:20.753Z,103046.09
2022-10-18T11:31:59.280Z,103048.34
2022-10-18T11:34:45.703Z,103054.72
2022-10-18T11:37:33.410Z,103045.63
2022-10-18T11:40:19.911Z,103038.88
2022-10-18T11:42:54.735Z,103040.16
2022-10-18T11:45:40.375Z,103048.09
2022-10-18T11:48:31.169Z,103048.28
2022-10-18T11:51:08.838Z,103045.78
2022-10-18T11:53:51.725Z,103049.91
2022-10-18T11:56:33.205Z,103044.88
2022-10-18T11:59:25.207Z,103050.09
2022-10-18T12:02:06.658Z,103043.81
2022-10-18T12:04:49.011Z,103048.13
2022-10-18T12:07:33.714Z,103051.13
2022-10-18T12:10:05.906Z,103040.25
2022-10-18T12:15:22.009Z,103041.50
2022-10-18T12:17:57.131Z,103047.56
2022-10-18T12:20:34.511Z,103035.28
2022-10-18T12:23:06.395Z,103034.34
2022-10-18T12:25:40.006Z,103035.72
2022-10-18T12:28:19.886Z,103045.00
2022-10-18T12:30:56.738Z,103030.28
2022-10-18T12:33:33.510Z,103037.88
2022-10-18T12:36:16.933Z,103052.03
2022-10-18T12:38:51.838Z,103046.72
2022-10-18T12:41:25.057Z,103021.44
2022-10-18T12:43:55.924Z,103037.13
2022-10-18T12:46:26.037Z,103036.81
2022-10-18T12:49:08.732Z,103037.47
2022-10-18T12:51:38.313Z,103026.00
2022-10-18T12:54:15.658Z,103028.78
2022-10-18T12:56:47.696Z,103030.31
2022-10-18T12:59:53.945Z,103027.00
2022-10-18T13:02:31.868Z,103026.16
2022-10-18T13:05:49.008Z,103028.28
2022-10-18T13:08:42.116Z,103029.66
2022-10-18T13:14:44.186Z,103015.56
2022-10-18T13:17:33.444Z,103025.91
2022-10-18T13:20:27.106Z,103019.91
2022-10-18T13:23:10.782Z,103021.47
2022-10-18T13:25:54.374Z,103021.19
2022-10-18T13:28:34.130Z,103017.47
2022-10-18T13:31:12.455Z,103006.72
2022-10-18T13:33:44.896Z,103011.28
2022-10-18T13:36:29.667Z,103015.69
2022-10-18T13:39:06.115Z,103009.78
2022-10-18T13:42:10.762Z,103007.31
2022-10-18T13:44:41.913Z,103010.84
2022-10-18T13:47:16.640Z,103013.53
2022-10-18T13:50:08.154Z,103003.66
2022-10-18T13:56:01.026Z,103023.75
2022-10-18T13:58:49.047Z,103013.16
2022-10-18T14:01:42.475Z,103017.22
2022-10-18T14:04:42.613Z,103015.75
2022-10-18T14:07:14.736Z,103016.00
2022-10-18T14:09:56.145Z,103022.19
2022-10-18T14:12:33.975Z,103019.69
2022-10-18T14:15:12.974Z,103014.97
2022-10-18T14:17:47.394Z,103015.94
2022-10-18T14:20:29.329Z,103025.81
2022-10-18T14:23:05.749Z,103022.69
2022-10-18T14:25:40.790Z,103022.69
2022-10-18T14:28:15.717Z,103021.47
2022-10-18T14:30:56.503Z,103016.22
2022-10-18T14:33:32.649Z,103034.13
2022-10-18T14:36:11.576Z,103031.28
2022-10-18T14:38:56.042Z,103035.44
2022-10-18T14:41:29.646Z,103031.16
2022-10-18T14:44:21.267Z,103035.13
2022-10-18T14:46:52.577Z,103031.16
2022-10-18T14:49:25.201Z,103014.53
2022-10-18T14:51:56.479Z,103023.91
2022-10-18T14:54:31.797Z,103021.84
2022-10-18T14:57:06.101Z,103028.75
2022-10-18T14:59:43.008Z,103027.06
2022-10-18T15:02:17.777Z,103038.78
2022-10-18T15:04:48.547Z,103028.25
2022-10-18T15:07:20.886Z,103026.19
2022-10-18T15:09:51.290Z,103029.38
2022-10-18T15:12:23.728Z,103043.97
2022-10-18T15:14:54.795Z,103040.66
2022-10-18T15:17:28.815Z,103045.59
2022-10-18T15:20:05.152Z,103048.50
2022-10-18T15:22:36.830Z,103040.84
2022-10-18T15:25:17.389Z,103035.25
2022-10-18T15:27:53.113Z,103043.88
2022-10-18T15:30:27.985Z,103043.41
2022-10-18T15:33:03.854Z,103046.34
2022-10-18T15:35:35.859Z,103043.47
2022-10-18T15:38:17.764Z,103044.34
2022-10-18T15:40:47.743Z,103038.75
2022-10-18T15:43:41.021Z,103051.09
2022-10-18T15:46:34.010Z,103047.91
2022-10-18T15:49:48.433Z,103059.16
2022-10-18T15:52:42.578Z,103052.56
2022-10-18T15:55:26.950Z,103051.84
2022-10-18T15:57:57.689Z,103051.63
2022-10-18T16:00:30.770Z,103056.91
2022-10-18T16:03:00.635Z,103049.44
2022-10-18T16:05:30.845Z,103046.75
2022-10-18T16:08:01.084Z,103049.91
2022-10-18T16:10:31.336Z,103050.78
2022-10-18T16:13:01.268Z,103047.94
2022-10-18T16:15:33.602Z,103046.72
2022-10-18T16:18:05.986Z,103058.00
2022-10-18T16:20:35.885Z,103045.34
2022-10-18T16:23:05.516Z,103043.38
2022-10-18T16:25:35.864Z,103049.81
2022-10-18T16:28:05.497Z,103054.03
2022-10-18T16:30:39.046Z,103054.56
2022-10-18T16:33:08.454Z,103057.00
2022-10-18T16:35:38.424Z,103067.28
2022-10-18T16:38:08.475Z,103063.59
2022-10-18T16:40:41.160Z,103065.00
2022-10-18T16:43:14.398Z,103069.16
2022-10-18T16:45:49.830Z,103056.53
2022-10-18T16:48:22.495Z,103073.75
2022-10-18T16:50:53.152Z,103075.25
2022-10-18T16:53:23.872Z,103065.22
2022-10-18T16:55:56.943Z,103065.81
2022-10-18T16:58:28.456Z,103068.06
2022-10-18T17:01:04.048Z,103068.66
2022-10-18T17:03:36.612Z,103077.00
2022-10-18T17:06:06.434Z,103080.03
2022-10-18T17:08:36.242Z,103088.47
2022-10-18T17:11:06.098Z,103095.75
2022-10-18T17:13:35.864Z,103096.22
2022-10-18T17:16:09.917Z,103106.31
2022-10-18T17:18:39.597Z,103105.03
2022-10-18T17:21:09.243Z,103114.28
2022-10-18T17:23:39.129Z,103113.94
2022-10-18T17:26:27.732Z,103108.34
2022-10-18T17:29:01.096Z,103107.88
2022-10-18T17:31:35.862Z,103115.38
2022-10-18T17:34:05.713Z,103126.34
2022-10-18T17:36:36.344Z,103126.81
2022-10-18T17:39:06.597Z,103122.94
2022-10-18T17:41:36.398Z,103110.34
2022-10-18T17:44:06.594Z,103117.84
2022-10-18T17:46:40.204Z,103117.44
2022-10-18T17:49:10.014Z,103116.25
2022-10-18T17:51:41.377Z,103123.78
2022-10-18T17:54:11.389Z,103124.31
2022-10-18T17:56:42.654Z,103117.03
2022-10-18T17:59:12.257Z,103123.72
2022-10-18T18:01:44.773Z,103132.13
2022-10-18T18:04:15.174Z,103130.84
2022-10-18T18:06:45.563Z,103134.84
2022-10-18T18:09:17.712Z,103144.13
2022-10-18T18:11:49.549Z,103137.53
2022-10-18T18:14:19.553Z,103141.56
2022-10-18T18:16:52.674Z,103144.78
2022-10-18T18:19:24.160Z,103130.41
2022-10-18T18:21:58.942Z,103138.06
2022-10-18T18:24:30.682Z,103143.88
2022-10-18T18:27:00.893Z,103139.22
2022-10-18T18:29:30.852Z,103152.91
2022-10-18T18:32:03.829Z,103136.84
2022-10-18T18:34:34.242Z,103145.38
2022-10-18T18:37:03.973Z,103155.53
2022-10-18T18:39:36.005Z,103142.03
2022-10-18T18:42:06.790Z,103146.22
2022-10-18T18:44:37.279Z,103154.72
2022-10-18T18:47:13.165Z,103157.03
2022-10-18T18:49:45.225Z,103168.09
2022-10-18T18:52:14.846Z,103159.41
2022-10-18T18:54:46.551Z,103157.28
2022-10-18T18:57:16.687Z,103158.84
2022-10-18T18:59:46.432Z,103153.44
2022-10-18T19:02:18.701Z,103151.47
2022-10-18T19:04:48.360Z,103154.81
2022-10-18T19:07:18.066Z,103153.00
2022-10-18T19:09:50.610Z,103149.75
2022-10-18T19:12:21.426Z,103152.53
2022-10-18T19:14:51.189Z,103151.94
2022-10-18T19:17:23.787Z,103151.13
2022-10-18T19:19:54.205Z,103156.13
2022-10-18T19:22:23.825Z,103155.06
2022-10-18T19:24:54.052Z,103155.88
2022-10-18T19:27:23.640Z,103158.50
2022-10-18T19:29:53.385Z,103154.72
2022-10-18T19:32:25.764Z,103160.72
2022-10-18T19:34:55.560Z,103158.47
2022-10-18T19:37:25.418Z,103156.44
2022-10-18T19:39:55.218Z,103163.09
2022-10-18T19:42:30.323Z,103159.31
2022-10-18T19:45:01.164Z,103162.66
2022-10-18T19:47:33.448Z,103157.97
2022-10-18T19:50:03.524Z,103155.84
2022-10-18T19:52:33.842Z,103158.09
2022-10-18T19:55:03.792Z,103160.47
2022-10-18T19:57:33.581Z,103161.84
2022-10-18T20:00:05.451Z,103163.28
2022-10-18T20:02:40.638Z,103157.78
2022-10-18T20:05:11.070Z,103159.34
2022-10-18T20:07:41.355Z,103152.38
2022-10-18T20:10:11.554Z,103151.47
2022-10-18T20:12:41.177Z,103144.09
2022-10-18T20:15:12.204Z,103146.78
2022-10-18T20:17:44.852Z,103139.66
2022-10-18T20:20:15.255Z,103138.03
2022-10-18T20:22:44.925Z,103136.06
2022-10-18T20:25:14.670Z,103137.78
2022-10-18T20:27:44.724Z,103129.94
2022-10-18T20:30:14.705Z,103136.25
2022-10-18T20:32:47.582Z,103130.84
2022-10-18T20:35:17.577Z,103137.88
2022-10-18T20:37:47.605Z,103134.25
2022-10-18T20:40:18.193Z,103130.47
2022-10-18T20:42:47.995Z,103129.94
2022-10-18T20:45:17.803Z,103135.72
2022-10-18T20:47:50.231Z,103135.28
2022-10-18T20:50:19.974Z,103132.13
2022-10-18T20:52:51.413Z,103134.38
2022-10-18T20:55:21.327Z,103132.47
2022-10-18T20:57:50.897Z,103143.47
2022-10-18T21:00:20.651Z,103138.88
2022-10-18T21:02:53.077Z,103135.91
2022-10-18T21:05:24.480Z,103128.41
2022-10-18T21:07:54.059Z,103130.94
2022-10-18T21:10:26.870Z,103125.63
2022-10-18T21:12:56.526Z,103134.88
2022-10-18T21:15:26.109Z,103132.81
2022-10-18T21:17:58.250Z,103147.38
2022-10-18T21:20:27.959Z,103137.38
2022-10-18T21:22:57.564Z,103150.25
2022-10-18T21:25:27.161Z,103148.34
2022-10-18T21:27:57.017Z,103138.50
2022-10-18T21:30:26.602Z,103147.16
2022-10-18T21:32:58.862Z,103148.47
2022-10-18T21:35:28.465Z,103146.59
2022-10-18T21:37:57.995Z,103148.00
2022-10-18T21:40:27.687Z,103137.28
2022-10-18T21:42:57.357Z,103133.56
2022-10-18T21:45:27.145Z,103128.16
2022-10-18T21:47:59.500Z,103131.56
2022-10-18T21:50:29.127Z,103126.16
2022-10-18T21:52:58.810Z,103129.69
2022-10-18T21:55:28.425Z,103129.59
2022-10-18T21:57:57.952Z,103120.75
2022-10-18T22:00:27.495Z,103119.75
2022-10-18T22:03:11.702Z,103123.97
2022-10-18T22:05:42.554Z,103125.63
2022-10-18T22:08:12.654Z,103122.22
2022-10-18T22:10:45.100Z,103123.63
2022-10-18T22:13:14.716Z,103128.66
2022-10-18T22:15:44.833Z,103127.66
2022-10-18T22:18:18.292Z,103129.78
2022-10-18T22:20:56.551Z,103118.25
2022-10-18T22:23:26.292Z,103124.25
2022-10-18T22:25:56.107Z,103119.66
2022-10-18T22:28:25.781Z,103123.78
2022-10-18T22:30:55.385Z,103126.28
2022-10-18T22:33:27.795Z,103127.09
2022-10-18T22:35:57.422Z,103127.59
2022-10-18T22:38:27.244Z,103135.41
2022-10-18T22:40:56.895Z,103136.94
2022-10-18T22:43:26.654Z,103132.31
2022-10-18T22:45:56.296Z,103130.41
2022-10-18T22:48:28.593Z,103131.00
2022-10-18T22:50:58.546Z,103134.53
2022-10-18T22:53:28.850Z,103139.53
2022-10-18T22:55:58.508Z,103133.22
2022-10-18T22:58:28.696Z,103134.63
2022-10-18T23:01:03.495Z,103145.16
2022-10-18T23:03:36.383Z,103139.63
2022-10-18T23:06:06.782Z,103141.22
2022-10-18T23:08:36.620Z,103138.31
2022-10-18T23:11:06.269Z,103139.03
2022-10-18T23:13:38.781Z,103131.00
2022-10-18T23:16:09.828Z,103124.88
2022-10-18T23:18:42.221Z,103128.28
2022-10-18T23:21:16.859Z,103129.91
2022-10-18T23:23:47.195Z,103130.50
2022-10-18T23:26:18.757Z,103132.09
2022-10-18T23:28:50.630Z,103120.56
2022-10-18T23:31:23.757Z,103125.78
2022-10-18T23:33:57.698Z,103127.38
2022-10-18T23:36:28.347Z,103125.47
2022-10-18T23:38:58.406Z,103121.06
2022-10-18T23:41:28.901Z,103119.25
2022-10-18T23:43:58.635Z,103117.25
2022-10-18T23:46:28.192Z,103114.63
2022-10-18T23:49:00.377Z,103111.13
2022-10-18T23:51:30.345Z,103112.94
2022-10-18T23:54:00.098Z,103108.44
2022-10-18T23:56:29.706Z,103109.84
2022-10-18T23:58:59.325Z,103119.16
